createdAt,value
2022-12-28T00:07:37.713Z,80.22
2022-12-28T00:17:38.745Z,80.15
2022-12-28T00:27:38.717Z,80.00
2022-12-28T00:37:38.764Z,79.87
2022-12-28T00:47:38.854Z,79.90
2022-12-28T00:57:41.592Z,80.04
2022-12-28T01:07:41.838Z,80.13
2022-12-28T01:17:41.865Z,80.23
2022-12-28T01:27:41.832Z,80.44
2022-12-28T01:37:42.733Z,80.68
2022-12-28T01:47:42.864Z,80.85
2022-12-28T01:57:42.875Z,80.99
2022-12-28T02:07:42.927Z,81.09
2022-12-28T02:17:42.900Z,81.19
2022-12-28T02:27:42.873Z,81.28
2022-12-28T02:37:42.879Z,81.31
2022-12-28T02:48:01.485Z,81.31
2022-12-28T02:58:01.998Z,81.29
2022-12-28T03:08:20.545Z,81.30
2022-12-28T03:18:39.381Z,81.24
2022-12-28T03:28:58.778Z,81.24
2022-12-28T03:38:59.168Z,81.22
2022-12-28T03:48:59.194Z,81.25
2022-12-28T03:59:01.012Z,81.21
2022-12-28T04:09:02.696Z,81.22
2022-12-28T04:19:03.229Z,81.20
2022-12-28T04:29:07.829Z,81.17
2022-12-28T04:39:08.080Z,81.12
2022-12-28T04:49:08.064Z,81.11
2022-12-28T04:59:08.049Z,81.18
2022-12-28T05:09:08.086Z,81.27
2022-12-28T05:19:08.115Z,81.33
2022-12-28T05:29:08.090Z,81.41
2022-12-28T05:39:08.502Z,81.47
2022-12-28T05:49:08.192Z,81.50
2022-12-28T05:59:08.336Z,81.52
2022-12-28T06:09:08.143Z,81.50
2022-12-28T06:19:08.215Z,81.46
2022-12-28T06:29:08.195Z,81.38
2022-12-28T06:39:08.166Z,81.17
2022-12-28T06:49:08.220Z,80.89
2022-12-28T06:59:08.237Z,80.79
2022-12-28T07:09:08.212Z,80.58
2022-12-28T07:19:08.273Z,80.70
2022-12-28T07:29:08.247Z,80.75
2022-12-28T07:39:08.561Z,80.85
2022-12-28T07:49:08.438Z,80.91
2022-12-28T07:59:08.272Z,80.95
2022-12-28T08:09:08.295Z,80.95
2022-12-28T08:19:08.356Z,80.91
2022-12-28T08:29:08.351Z,80.81
2022-12-28T08:39:08.325Z,80.65
2022-12-28T08:49:08.381Z,80.51
2022-12-28T08:59:08.361Z,80.32
2022-12-28T09:09:08.639Z,80.05
2022-12-28T09:19:09.528Z,79.97
2022-12-28T09:29:09.392Z,79.93
2022-12-28T09:39:09.443Z,79.89
2022-12-28T09:49:09.445Z,79.72
2022-12-28T09:59:09.400Z,79.45
2022-12-28T10:09:09.478Z,79.21
2022-12-28T10:19:09.536Z,78.92
2022-12-28T10:29:09.461Z,78.71
2022-12-28T10:39:09.491Z,78.42
2022-12-28T10:49:15.263Z,78.13
2022-12-28T10:59:11.991Z,77.98
2022-12-28T11:09:12.575Z,77.66
2022-12-28T11:19:12.667Z,77.31
2022-12-28T11:29:12.539Z,77.22
2022-12-28T11:39:12.565Z,76.94
2022-12-28T11:49:12.623Z,76.64
2022-12-28T11:59:12.613Z,76.57
2022-12-28T12:09:12.607Z,76.41
2022-12-28T12:19:12.641Z,76.53
2022-12-28T12:29:13.625Z,76.39
2022-12-28T12:39:13.686Z,76.26
2022-12-28T12:49:13.759Z,76.00
2022-12-28T12:59:13.678Z,75.74
2022-12-28T13:09:13.685Z,75.68
2022-12-28T13:19:13.667Z,75.60
2022-12-28T13:29:13.691Z,75.24
2022-12-28T13:39:13.718Z,75.18
2022-12-28T13:49:13.850Z,75.30
2022-12-28T13:59:13.793Z,75.38
2022-12-28T14:09:13.782Z,75.19
2022-12-28T14:19:13.922Z,74.85
2022-12-28T14:29:13.869Z,74.67
2022-12-28T14:39:13.878Z,74.61
2022-12-28T14:49:13.820Z,74.46
2022-12-28T14:59:14.753Z,74.32
2022-12-28T15:09:16.027Z,74.23
2022-12-28T15:19:17.852Z,73.90
2022-12-28T15:29:32.270Z,73.76
2022-12-28T15:39:19.951Z,73.68
2022-12-28T15:49:19.917Z,73.46
2022-12-28T15:59:20.040Z,73.51
2022-12-28T16:09:19.987Z,73.38
2022-12-28T16:19:20.003Z,73.30
2022-12-28T16:29:20.036Z,72.91
2022-12-28T16:39:20.571Z,72.67
2022-12-28T16:49:21.039Z,72.26
2022-12-28T16:59:21.091Z,72.08
2022-12-28T17:09:21.117Z,72.15
2022-12-28T17:19:21.888Z,72.54
2022-12-28T17:29:22.037Z,73.29
2022-12-28T17:39:22.033Z,74.64
2022-12-28T17:49:22.102Z,75.71
2022-12-28T17:59:22.107Z,76.70
2022-12-28T18:09:27.321Z,77.14
2022-12-28T18:19:24.053Z,77.75
2022-12-28T18:29:24.369Z,78.26
2022-12-28T18:39:24.100Z,78.89
2022-12-28T18:49:24.686Z,79.72
2022-12-28T18:59:25.190Z,80.41
2022-12-28T19:09:25.211Z,80.93
2022-12-28T19:19:25.229Z,81.32
2022-12-28T19:29:25.403Z,81.70
2022-12-28T19:39:25.218Z,82.20
2022-12-28T19:49:25.217Z,82.45
2022-12-28T19:59:25.314Z,82.88
2022-12-28T20:09:25.236Z,83.28
2022-12-28T20:19:25.193Z,83.55
2022-12-28T20:29:25.247Z,83.69
2022-12-28T20:39:25.237Z,83.76
2022-12-28T20:49:25.275Z,83.82
2022-12-28T20:59:25.373Z,83.81
2022-12-28T21:09:25.348Z,83.76
2022-12-28T21:19:25.323Z,83.81
2022-12-28T21:29:26.162Z,83.85
2022-12-28T21:39:26.295Z,83.89
2022-12-28T21:49:26.358Z,84.18
2022-12-28T21:59:26.377Z,84.48
2022-12-28T22:09:44.687Z,84.63
2022-12-28T22:19:44.400Z,84.72
2022-12-28T22:29:44.516Z,85.08
2022-12-28T22:39:44.460Z,85.48
2022-12-28T22:49:44.514Z,85.79
2022-12-28T22:59:44.820Z,85.97
2022-12-28T23:09:45.435Z,86.10
2022-12-28T23:20:03.728Z,86.21
2022-12-28T23:30:03.605Z,86.24
2022-12-28T23:40:03.519Z,86.18
2022-12-28T23:50:03.436Z,86.07
